createdAt,value
2022-08-05T00:01:36.454Z,31.41
2022-08-05T00:04:18.224Z,31.30
2022-08-05T00:06:51.913Z,31.20
2022-08-05T00:09:20.875Z,31.29
2022-08-05T00:11:56.005Z,31.33
2022-08-05T00:14:29.046Z,31.34
2022-08-05T00:16:58.213Z,31.37
2022-08-05T00:19:33.252Z,31.32
2022-08-05T00:22:03.512Z,31.26
2022-08-05T00:24:33.090Z,31.24
2022-08-05T00:27:04.656Z,31.24
2022-08-05T00:29:39.340Z,31.31
2022-08-05T00:32:11.078Z,31.51
2022-08-05T00:35:05.161Z,31.51
2022-08-05T00:37:50.926Z,31.23
2022-08-05T00:40:28.437Z,30.79
2022-08-05T00:43:00.225Z,30.74
2022-08-05T00:45:38.380Z,30.95
2022-08-05T00:48:09.350Z,30.90
2022-08-05T00:50:41.259Z,30.92
2022-08-05T00:54:01.431Z,30.95
2022-08-05T00:55:59.074Z,30.63
2022-08-05T00:58:27.800Z,30.51
2022-08-05T01:00:56.837Z,30.62
2022-08-05T01:03:33.459Z,30.72
2022-08-05T01:06:05.447Z,30.95
2022-08-05T01:08:43.039Z,30.99
2022-08-05T01:11:36.971Z,30.64
2022-08-05T01:14:15.542Z,30.61
2022-08-05T01:16:55.449Z,30.63
2022-08-05T01:19:36.495Z,30.66
2022-08-05T01:22:28.108Z,30.59
2022-08-05T01:25:02.370Z,30.72
2022-08-05T01:27:50.523Z,30.51
2022-08-05T01:30:34.901Z,30.61
2022-08-05T01:33:08.377Z,30.64
2022-08-05T01:35:51.540Z,30.70
2022-08-05T01:38:27.514Z,30.49
2022-08-05T01:41:01.932Z,30.56
2022-08-05T01:43:31.210Z,30.66
2022-08-05T01:46:07.122Z,30.53
2022-08-05T01:48:49.661Z,30.27
2022-08-05T01:51:19.559Z,30.12
2022-08-05T01:53:57.624Z,30.12
2022-08-05T01:58:10.981Z,30.26
2022-08-05T01:59:22.729Z,29.90
2022-08-05T02:01:55.603Z,30.17
2022-08-05T02:04:28.189Z,30.28
2022-08-05T02:06:59.360Z,30.33
2022-08-05T02:09:28.134Z,30.25
2022-08-05T02:12:10.168Z,30.17
2022-08-05T02:14:48.941Z,29.73
2022-08-05T02:18:27.457Z,29.86
2022-08-05T02:20:20.690Z,29.77
2022-08-05T02:23:02.385Z,29.99
2022-08-05T02:25:49.706Z,29.93
2022-08-05T02:28:28.367Z,29.87
2022-08-05T02:31:03.040Z,29.72
2022-08-05T02:33:38.779Z,29.89
2022-08-05T02:36:15.639Z,29.91
2022-08-05T02:38:53.304Z,29.80
2022-08-05T02:41:28.975Z,29.85
2022-08-05T02:44:14.137Z,29.85
2022-08-05T02:46:58.780Z,29.63
2022-08-05T02:49:37.719Z,29.81
2022-08-05T02:52:29.831Z,29.94
2022-08-05T02:55:05.333Z,29.46
2022-08-05T02:58:11.547Z,29.18
2022-08-05T03:00:25.406Z,29.63
2022-08-05T03:02:58.093Z,29.73
2022-08-05T03:06:53.647Z,29.94
2022-08-05T03:08:16.603Z,29.57
2022-08-05T03:11:53.108Z,29.88
2022-08-05T03:13:50.971Z,29.69
2022-08-05T03:16:21.714Z,29.76
2022-08-05T03:18:51.574Z,29.79
2022-08-05T03:21:20.675Z,29.97
2022-08-05T03:23:50.441Z,29.90
2022-08-05T03:26:31.700Z,29.82
2022-08-05T03:29:01.326Z,29.77
2022-08-05T03:31:57.058Z,29.76
2022-08-05T03:34:19.484Z,29.63
2022-08-05T03:36:53.145Z,29.24
2022-08-05T03:39:27.281Z,29.44
2022-08-05T03:41:57.325Z,29.45
2022-08-05T03:44:25.963Z,29.44
2022-08-05T03:46:57.913Z,29.21
2022-08-05T03:49:31.254Z,29.32
2022-08-05T03:52:49.192Z,29.21
2022-08-05T03:56:00.932Z,29.29
2022-08-05T03:58:01.773Z,29.43
2022-08-05T04:00:32.544Z,29.36
2022-08-05T04:03:03.044Z,29.45
2022-08-05T04:05:34.904Z,29.37
2022-08-05T04:08:14.846Z,29.48
2022-08-05T04:10:55.194Z,29.30
2022-08-05T04:13:24.046Z,29.38
2022-08-05T04:16:04.562Z,29.13
2022-08-05T04:18:34.486Z,29.24
2022-08-05T04:21:04.467Z,29.35
2022-08-05T04:24:04.861Z,29.37
2022-08-05T04:26:22.448Z,29.33
2022-08-05T04:28:51.833Z,29.28
2022-08-05T04:31:20.684Z,29.26
2022-08-05T04:34:18.526Z,29.12
2022-08-05T04:36:45.692Z,29.35
2022-08-05T04:39:20.335Z,29.30
2022-08-05T04:41:52.231Z,29.20
2022-08-05T04:44:21.309Z,29.24
2022-08-05T04:46:59.668Z,29.34
2022-08-05T04:49:38.952Z,29.38
2022-08-05T04:52:16.746Z,29.42
2022-08-05T04:54:47.253Z,29.12
2022-08-05T04:57:18.131Z,29.29
2022-08-05T04:59:48.067Z,29.50
2022-08-05T05:02:37.738Z,29.40
2022-08-05T05:05:26.128Z,29.54
2022-08-05T05:08:01.832Z,29.72
2022-08-05T05:10:42.517Z,29.65
2022-08-05T05:13:24.654Z,29.65
2022-08-05T05:15:57.087Z,29.57
2022-08-05T05:18:33.672Z,29.65
2022-08-05T05:21:04.171Z,29.76
2022-08-05T05:24:02.398Z,29.77
2022-08-05T05:26:28.805Z,29.79
2022-08-05T05:29:02.558Z,29.36
2022-08-05T05:34:05.694Z,29.52
2022-08-05T05:36:37.257Z,29.54
2022-08-05T05:39:09.381Z,29.69
2022-08-05T05:41:40.622Z,29.74
2022-08-05T05:44:26.995Z,29.84
2022-08-05T05:47:04.649Z,29.99
2022-08-05T05:49:47.457Z,30.20
2022-08-05T05:52:29.829Z,30.32
2022-08-05T05:55:07.393Z,30.33
2022-08-05T05:57:51.950Z,30.23
2022-08-05T06:00:27.733Z,30.38
2022-08-05T06:03:02.748Z,30.37
2022-08-05T06:05:31.934Z,30.37
2022-08-05T06:08:01.970Z,30.46
2022-08-05T06:10:36.207Z,30.60
2022-08-05T06:13:06.240Z,30.68
2022-08-05T06:16:30.074Z,30.72
2022-08-05T06:18:31.306Z,30.86
2022-08-05T06:21:00.724Z,30.81
2022-08-05T06:23:31.997Z,30.87
2022-08-05T06:26:21.642Z,30.88
2022-08-05T06:28:53.487Z,30.95
2022-08-05T06:31:22.481Z,30.91
2022-08-05T06:34:07.634Z,30.94
2022-08-05T06:36:56.896Z,31.19
2022-08-05T06:39:28.053Z,31.18
2022-08-05T06:41:58.800Z,31.20
2022-08-05T06:44:27.919Z,31.14
2022-08-05T06:46:56.916Z,31.29
2022-08-05T06:49:59.853Z,31.38
2022-08-05T06:52:36.638Z,31.45
2022-08-05T06:55:03.240Z,31.49
2022-08-05T06:58:02.540Z,31.54
2022-08-05T07:00:22.155Z,31.58
2022-08-05T07:02:54.106Z,31.64
2022-08-05T07:05:37.198Z,31.64
2022-08-05T07:08:10.004Z,31.62
2022-08-05T07:10:53.108Z,31.68
2022-08-05T07:13:56.981Z,31.63
2022-08-05T07:17:57.299Z,31.59
2022-08-05T07:22:29.078Z,31.68
2022-08-05T07:25:23.514Z,31.73
2022-08-05T07:27:58.151Z,31.77
2022-08-05T07:30:33.924Z,31.81
2022-08-05T07:33:05.372Z,31.82
2022-08-05T07:36:04.716Z,31.88
2022-08-05T07:38:33.472Z,31.86
2022-08-05T07:42:09.499Z,31.94
2022-08-05T07:43:56.774Z,32.02
2022-08-05T07:46:27.419Z,31.98
2022-08-05T07:49:03.477Z,32.06
2022-08-05T07:51:40.342Z,32.12
2022-08-05T07:54:10.600Z,32.07
2022-08-05T07:57:14.734Z,32.07
2022-08-05T07:59:38.691Z,32.16
2022-08-05T08:02:17.107Z,32.12
2022-08-05T08:04:48.340Z,32.08
2022-08-05T08:07:22.871Z,32.14
2022-08-05T08:09:54.861Z,32.20
2022-08-05T08:12:35.057Z,32.37
2022-08-05T08:15:14.156Z,32.41
2022-08-05T08:17:49.784Z,32.33
2022-08-05T08:20:45.344Z,32.15
2022-08-05T08:24:02.726Z,32.25
2022-08-05T08:26:04.498Z,32.36
2022-08-05T08:28:36.468Z,32.22
2022-08-05T08:31:09.206Z,32.26
2022-08-05T08:33:38.559Z,32.34
2022-08-05T08:36:39.036Z,32.39
2022-08-05T08:38:57.337Z,32.31
2022-08-05T08:41:52.593Z,32.35
2022-08-05T08:45:24.143Z,32.33
2022-08-05T08:47:21.883Z,32.50
2022-08-05T08:50:23.196Z,32.49
2022-08-05T08:52:57.376Z,32.44
2022-08-05T08:56:02.018Z,32.34
2022-08-05T08:58:17.528Z,32.64
2022-08-05T09:00:47.028Z,32.58
2022-08-05T09:03:19.097Z,32.57
2022-08-05T09:06:07.885Z,32.53
2022-08-05T09:08:40.308Z,32.66
2022-08-05T09:11:13.570Z,32.65
2022-08-05T09:14:10.232Z,32.59
2022-08-05T09:16:32.145Z,32.60
2022-08-05T09:19:00.307Z,32.60
2022-08-05T09:22:22.656Z,32.68
2022-08-05T09:24:18.364Z,32.69
2022-08-05T09:26:54.234Z,32.73
2022-08-05T09:29:47.683Z,32.84
2022-08-05T09:32:41.866Z,32.89
2022-08-05T09:35:26.693Z,32.94
2022-08-05T09:38:17.363Z,32.75
2022-08-05T09:40:52.211Z,32.76
2022-08-05T09:43:40.514Z,32.85
2022-08-05T09:46:28.652Z,32.81
2022-08-05T09:49:08.337Z,32.61
2022-08-05T09:51:50.070Z,32.84
2022-08-05T09:54:31.687Z,32.91
2022-08-05T09:57:01.516Z,32.90
2022-08-05T09:59:35.165Z,32.68
2022-08-05T10:02:06.233Z,32.76
2022-08-05T10:04:39.900Z,32.76
2022-08-05T10:07:20.993Z,32.86
2022-08-05T10:10:14.514Z,32.97
2022-08-05T10:12:50.533Z,32.86
2022-08-05T10:15:25.664Z,32.77
2022-08-05T10:18:12.768Z,32.72
2022-08-05T10:20:53.405Z,32.88
2022-08-05T10:23:55.828Z,32.88
2022-08-05T10:26:15.628Z,33.10
2022-08-05T10:28:46.296Z,33.19
2022-08-05T10:32:54.223Z,33.12
2022-08-05T10:34:08.140Z,33.20
2022-08-05T10:36:38.398Z,33.26
2022-08-05T10:39:59.018Z,33.18
2022-08-05T10:42:33.688Z,33.14
2022-08-05T10:45:21.387Z,33.11
2022-08-05T10:48:29.389Z,33.13
2022-08-05T10:51:03.389Z,33.15
2022-08-05T10:53:38.414Z,33.24
2022-08-05T10:56:21.430Z,33.22
2022-08-05T10:58:54.030Z,33.29
2022-08-05T11:02:04.513Z,33.26
2022-08-05T11:04:23.102Z,33.18
2022-08-05T11:07:01.341Z,33.18
2022-08-05T11:10:04.014Z,33.31
2022-08-05T11:12:42.440Z,33.32
2022-08-05T11:15:20.055Z,33.28
2022-08-05T11:18:00.485Z,33.26
2022-08-05T11:20:43.831Z,33.30
2022-08-05T11:24:05.317Z,33.42
2022-08-05T11:26:43.779Z,33.53
2022-08-05T11:29:41.050Z,33.57
2022-08-05T11:32:27.731Z,33.59
2022-08-05T11:34:57.861Z,33.66
2022-08-05T11:38:29.841Z,33.72
2022-08-05T11:41:58.175Z,33.85
2022-08-05T11:44:40.697Z,33.78
2022-08-05T11:47:11.694Z,33.82
2022-08-05T11:49:58.398Z,33.75
2022-08-05T11:52:29.926Z,33.85
2022-08-05T11:55:07.721Z,33.96
2022-08-05T11:58:09.999Z,34.05
2022-08-05T12:00:38.257Z,33.98
2022-08-05T12:03:28.366Z,33.80
2022-08-05T12:06:03.336Z,33.84
2022-08-05T12:08:50.596Z,33.82
2022-08-05T12:11:21.979Z,33.95
2022-08-05T12:14:04.236Z,34.05
2022-08-05T12:16:35.180Z,34.03
2022-08-05T12:19:10.149Z,34.03
2022-08-05T12:21:58.358Z,33.99
2022-08-05T12:24:26.792Z,34.08
2022-08-05T12:26:55.409Z,33.96
2022-08-05T12:29:25.828Z,33.99
2022-08-05T12:32:01.940Z,34.00
2022-08-05T12:34:35.729Z,34.02
2022-08-05T12:37:17.417Z,34.06
2022-08-05T12:39:53.998Z,34.14
2022-08-05T12:42:25.425Z,34.22
2022-08-05T12:45:02.350Z,34.09
2022-08-05T12:47:31.539Z,34.10
2022-08-05T12:50:04.037Z,34.13
2022-08-05T12:52:39.365Z,34.14
2022-08-05T12:55:23.946Z,34.19
2022-08-05T12:58:48.593Z,34.18
2022-08-05T13:02:02.216Z,34.17
2022-08-05T13:03:43.128Z,34.24
2022-08-05T13:06:16.555Z,34.24
2022-08-05T13:08:52.371Z,34.27
2022-08-05T13:11:59.869Z,34.22
2022-08-05T13:14:36.363Z,34.21
2022-08-05T13:17:42.009Z,34.23
2022-08-05T13:20:21.705Z,34.28
2022-08-05T13:22:53.348Z,34.23
2022-08-05T13:25:51.231Z,34.29
2022-08-05T13:28:10.607Z,34.55
2022-08-05T13:30:39.644Z,34.53
2022-08-05T13:33:07.903Z,34.54
2022-08-05T13:35:47.300Z,34.44
2022-08-05T13:38:30.583Z,34.55
2022-08-05T13:41:04.657Z,34.43
2022-08-05T13:43:45.512Z,34.42
2022-08-05T13:49:14.081Z,34.48
2022-08-05T13:51:46.199Z,34.54
2022-08-05T13:54:17.095Z,34.58
2022-08-05T13:56:51.522Z,34.38
2022-08-05T13:59:27.101Z,34.46
2022-08-05T14:02:00.156Z,34.66
2022-08-05T14:04:51.422Z,34.53
2022-08-05T14:07:25.653Z,34.50
2022-08-05T14:10:11.211Z,34.45
2022-08-05T14:12:40.105Z,34.56
2022-08-05T14:16:05.116Z,34.47
2022-08-05T14:18:02.841Z,34.55
2022-08-05T14:20:32.515Z,34.54
2022-08-05T14:23:01.374Z,34.55
2022-08-05T14:25:31.515Z,34.55
2022-08-05T14:27:59.894Z,34.60
2022-08-05T14:30:29.901Z,34.64
2022-08-05T14:32:58.974Z,34.62
2022-08-05T14:35:37.050Z,34.53
2022-08-05T14:38:31.808Z,34.56
2022-08-05T14:41:05.974Z,34.63
2022-08-05T14:44:01.615Z,34.69
2022-08-05T14:46:29.615Z,34.69
2022-08-05T14:49:06.454Z,34.70
2022-08-05T14:51:42.646Z,34.74
2022-08-05T14:54:27.602Z,34.74
2022-08-05T14:56:58.669Z,34.60
2022-08-05T14:59:29.551Z,34.68
2022-08-05T15:02:14.635Z,34.71
2022-08-05T15:04:44.816Z,34.78
2022-08-05T15:08:08.899Z,34.82
2022-08-05T15:10:03.272Z,34.84
2022-08-05T15:12:51.396Z,34.86
2022-08-05T15:15:55.018Z,34.87
2022-08-05T15:18:10.191Z,34.81
2022-08-05T15:20:43.697Z,34.80
2022-08-05T15:23:14.789Z,34.82
2022-08-05T15:25:52.089Z,34.86
2022-08-05T15:28:27.605Z,34.83
2022-08-05T15:30:57.382Z,34.82
2022-08-05T15:34:18.647Z,34.80
2022-08-05T15:36:16.725Z,34.84
2022-08-05T15:38:46.753Z,34.85
2022-08-05T15:41:20.730Z,34.82
2022-08-05T15:43:55.438Z,34.69
2022-08-05T15:46:25.127Z,34.69
2022-08-05T15:48:58.522Z,34.81
2022-08-05T15:52:04.462Z,34.95
2022-08-05T15:54:19.080Z,34.82
2022-08-05T15:56:47.397Z,34.84
2022-08-05T15:59:19.837Z,34.86
2022-08-05T16:01:52.766Z,34.90
2022-08-05T16:04:25.138Z,34.90
2022-08-05T16:06:55.625Z,34.84
2022-08-05T16:09:25.032Z,34.95
2022-08-05T16:11:53.893Z,34.85
2022-08-05T16:14:23.286Z,34.93
2022-08-05T16:16:51.888Z,34.93
2022-08-05T16:20:03.220Z,34.91
2022-08-05T16:22:10.651Z,34.96
2022-08-05T16:24:41.612Z,34.94
2022-08-05T16:27:32.038Z,35.02
2022-08-05T16:30:23.325Z,34.97
2022-08-05T16:32:55.381Z,34.94
2022-08-05T16:35:27.825Z,34.95
2022-08-05T16:38:15.126Z,34.95
2022-08-05T16:40:51.721Z,34.92
2022-08-05T16:43:27.218Z,34.99
2022-08-05T16:46:07.208Z,35.04
2022-08-05T16:48:41.538Z,34.95
2022-08-05T16:51:11.419Z,34.95
2022-08-05T16:54:05.276Z,34.95
2022-08-05T16:56:31.295Z,35.03
2022-08-05T16:59:07.603Z,35.05
2022-08-05T17:01:54.329Z,35.02
2022-08-05T17:04:26.655Z,34.92
2022-08-05T17:07:00.399Z,34.89
2022-08-05T17:09:38.755Z,34.93
2022-08-05T17:12:22.741Z,34.99
2022-08-05T17:15:09.286Z,34.98
2022-08-05T17:17:42.077Z,35.03
2022-08-05T17:20:14.692Z,35.02
2022-08-05T17:22:43.758Z,35.00
2022-08-05T17:25:33.959Z,34.98
2022-08-05T17:28:02.495Z,35.03
2022-08-05T17:30:30.947Z,34.97
2022-08-05T17:32:59.197Z,34.97
2022-08-05T17:35:32.592Z,34.93
2022-08-05T17:38:17.557Z,34.95
2022-08-05T17:40:46.348Z,34.96
2022-08-05T17:43:17.248Z,34.95
2022-08-05T17:45:45.979Z,34.88
2022-08-05T17:48:14.550Z,34.93
2022-08-05T17:50:44.508Z,34.86
2022-08-05T17:53:12.788Z,34.77
2022-08-05T17:55:43.727Z,34.74
2022-08-05T17:58:14.655Z,34.64
2022-08-05T18:00:50.977Z,34.68
2022-08-05T18:06:12.236Z,34.69
2022-08-05T18:08:45.766Z,34.59
2022-08-05T18:11:23.952Z,34.61
2022-08-05T18:13:53.356Z,34.59
2022-08-05T18:16:21.880Z,34.69
2022-08-05T18:18:51.002Z,34.67
2022-08-05T18:21:22.926Z,34.65
2022-08-05T18:23:55.253Z,34.68
2022-08-05T18:26:29.271Z,34.66
2022-08-05T18:29:00.592Z,34.72
2022-08-05T18:31:33.817Z,34.69
2022-08-05T18:34:05.811Z,34.61
2022-08-05T18:36:35.830Z,34.63
2022-08-05T18:39:09.642Z,34.60
2022-08-05T18:41:57.574Z,34.64
2022-08-05T18:44:34.672Z,34.55
2022-08-05T18:47:04.593Z,34.58
2022-08-05T18:49:57.935Z,34.59
2022-08-05T18:52:51.303Z,34.60
2022-08-05T18:55:22.270Z,34.37
2022-08-05T18:57:53.280Z,34.36
2022-08-05T19:00:28.381Z,34.38
2022-08-05T19:03:04.156Z,34.43
2022-08-05T19:06:12.136Z,34.46
2022-08-05T19:08:30.999Z,34.53
2022-08-05T19:11:02.842Z,34.49
2022-08-05T19:13:35.959Z,34.51
2022-08-05T19:16:24.398Z,34.41
2022-08-05T19:18:56.736Z,34.31
2022-08-05T19:21:34.460Z,34.31
2022-08-05T19:24:09.012Z,34.29
2022-08-05T19:26:54.534Z,34.27
2022-08-05T19:29:35.834Z,34.38
2022-08-05T19:32:11.556Z,34.35
2022-08-05T19:34:40.741Z,34.38
2022-08-05T19:37:10.879Z,34.30
2022-08-05T19:39:45.714Z,34.28
2022-08-05T19:42:35.514Z,34.22
2022-08-05T19:45:06.082Z,34.15
2022-08-05T19:47:37.577Z,34.11
2022-08-05T19:50:10.591Z,34.05
2022-08-05T19:52:40.946Z,34.01
2022-08-05T19:56:15.474Z,33.98
2022-08-05T19:58:19.704Z,33.95
2022-08-05T20:00:47.256Z,33.93
2022-08-05T20:03:16.713Z,33.91
2022-08-05T20:05:51.294Z,33.94
2022-08-05T20:08:20.829Z,33.89
2022-08-05T20:10:55.462Z,33.87
2022-08-05T20:13:55.029Z,33.84
2022-08-05T20:16:12.456Z,33.84
2022-08-05T20:18:41.108Z,33.79
2022-08-05T20:21:09.930Z,33.81
2022-08-05T20:23:50.918Z,33.80
2022-08-05T20:26:23.305Z,33.78
2022-08-05T20:28:55.845Z,33.80
2022-08-05T20:31:37.092Z,33.79
2022-08-05T20:34:12.443Z,33.78
2022-08-05T20:36:43.507Z,33.79
2022-08-05T20:39:16.241Z,33.78
2022-08-05T20:42:01.119Z,33.82
2022-08-05T20:44:31.022Z,33.82
2022-08-05T20:47:06.728Z,33.78
2022-08-05T20:49:38.059Z,33.79
2022-08-05T20:52:10.718Z,33.77
2022-08-05T20:54:43.479Z,33.76
2022-08-05T20:57:43.850Z,33.79
2022-08-05T21:00:35.053Z,33.78
2022-08-05T21:03:07.898Z,33.78
2022-08-05T21:05:53.969Z,33.81
2022-08-05T21:08:28.249Z,33.79
2022-08-05T21:11:12.398Z,33.80
2022-08-05T21:13:55.393Z,33.79
2022-08-05T21:16:30.817Z,33.74
2022-08-05T21:19:01.420Z,33.68
2022-08-05T21:21:39.154Z,33.69
2022-08-05T21:24:15.410Z,33.64
2022-08-05T21:26:53.551Z,33.64
2022-08-05T21:29:31.386Z,33.66
2022-08-05T21:32:04.167Z,33.64
2022-08-05T21:34:32.930Z,33.63
2022-08-05T21:37:05.240Z,33.61
2022-08-05T21:39:38.367Z,33.56
2022-08-05T21:42:36.827Z,33.48
2022-08-05T21:44:58.948Z,33.42
2022-08-05T21:47:55.823Z,33.34
2022-08-05T21:50:17.172Z,33.35
2022-08-05T21:52:47.162Z,33.32
2022-08-05T21:55:17.682Z,33.37
2022-08-05T21:58:06.046Z,33.35
2022-08-05T22:00:34.677Z,33.33
2022-08-05T22:03:04.297Z,33.28
2022-08-05T22:05:48.673Z,33.06
2022-08-05T22:08:22.412Z,33.26
2022-08-05T22:10:55.254Z,33.40
2022-08-05T22:14:19.849Z,33.51
2022-08-05T22:16:40.484Z,33.51
2022-08-05T22:19:02.417Z,33.42
2022-08-05T22:21:30.732Z,33.30
2022-08-05T22:24:40.688Z,33.34
2022-08-05T22:27:25.016Z,33.34
2022-08-05T22:30:15.632Z,33.45
2022-08-05T22:32:46.308Z,33.45
2022-08-05T22:35:14.952Z,33.44
2022-08-05T22:37:58.819Z,33.38
2022-08-05T22:40:30.634Z,33.35
2022-08-05T22:42:59.469Z,33.42
2022-08-05T22:45:27.829Z,33.45
2022-08-05T22:47:59.504Z,33.46
2022-08-05T22:50:28.033Z,33.43
2022-08-05T22:52:56.677Z,33.43
2022-08-05T22:55:26.214Z,33.43
2022-08-05T22:57:55.060Z,33.44
2022-08-05T23:00:24.128Z,33.45
2022-08-05T23:02:56.576Z,33.47
2022-08-05T23:05:26.650Z,33.45
2022-08-05T23:07:55.075Z,33.38
2022-08-05T23:10:24.475Z,33.33
2022-08-05T23:12:55.422Z,33.40
2022-08-05T23:15:30.031Z,33.42
2022-08-05T23:18:11.320Z,33.35
2022-08-05T23:20:44.299Z,33.42
2022-08-05T23:23:13.507Z,33.53
2022-08-05T23:25:52.052Z,33.58
2022-08-05T23:28:29.451Z,33.55
2022-08-05T23:31:07.019Z,33.50
2022-08-05T23:34:05.409Z,33.47
2022-08-05T23:36:41.541Z,33.44
2022-08-05T23:39:16.379Z,33.43
2022-08-05T23:41:52.709Z,33.44
2022-08-05T23:44:25.136Z,33.45
2022-08-05T23:47:02.499Z,33.41
2022-08-05T23:49:47.166Z,33.41
2022-08-05T23:52:28.301Z,33.42
2022-08-05T23:54:58.873Z,33.45
2022-08-05T23:57:28.185Z,33.33
